createdAt,value
2022-08-31T00:00:04.766Z,99855.28
2022-08-31T00:06:07.051Z,99859.44
2022-08-31T00:12:09.105Z,99855.53
2022-08-31T00:18:12.207Z,99856.75
2022-08-31T00:24:14.549Z,99851.63
2022-08-31T00:30:16.739Z,99839.53
2022-08-31T00:36:22.225Z,99847.78
2022-08-31T00:42:24.564Z,99851.22
2022-08-31T00:48:26.689Z,99849.66
2022-08-31T00:54:54.922Z,99856.13
2022-08-31T01:00:59.783Z,99857.47
2022-08-31T01:07:06.062Z,99860.41
2022-08-31T01:13:09.137Z,99853.47
2022-08-31T01:19:44.394Z,99859.50
2022-08-31T01:25:49.218Z,99868.66
2022-08-31T01:31:51.274Z,99862.88
2022-08-31T01:37:54.788Z,99866.47
2022-08-31T01:43:57.471Z,99863.88
2022-08-31T01:49:59.470Z,99876.59
2022-08-31T01:56:01.565Z,99866.97
2022-08-31T02:02:03.863Z,99866.38
2022-08-31T02:08:09.380Z,99863.28
2022-08-31T02:14:11.810Z,99865.00
2022-08-31T02:20:15.630Z,99862.53
2022-08-31T02:26:18.119Z,99873.69
2022-08-31T02:32:21.364Z,99859.50
2022-08-31T02:38:23.896Z,99841.72
2022-08-31T02:44:26.187Z,99840.44
2022-08-31T02:50:28.269Z,99840.03
2022-08-31T02:56:30.213Z,99831.94
2022-08-31T03:02:33.222Z,99834.13
2022-08-31T03:08:35.284Z,99847.28
2022-08-31T03:14:37.531Z,99845.16
2022-08-31T03:20:39.539Z,99842.22
2022-08-31T03:26:41.537Z,99835.16
2022-08-31T03:32:45.487Z,99829.38
2022-08-31T03:38:47.443Z,99839.63
2022-08-31T03:44:49.630Z,99845.88
2022-08-31T03:50:51.628Z,99846.19
2022-08-31T03:56:53.845Z,99838.69
2022-08-31T04:03:00.014Z,99850.78
2022-08-31T04:09:02.111Z,99865.19
2022-08-31T04:15:05.493Z,99871.22
2022-08-31T04:21:24.216Z,99858.63
2022-08-31T04:27:26.198Z,99858.72
2022-08-31T04:33:28.133Z,99863.09
2022-08-31T04:39:32.730Z,99867.22
2022-08-31T04:45:34.907Z,99863.03
2022-08-31T04:51:39.317Z,99876.25
2022-08-31T04:57:41.410Z,99879.03
2022-08-31T05:03:44.154Z,99880.91
2022-08-31T05:09:46.103Z,99884.72
2022-08-31T05:15:48.181Z,99890.53
2022-08-31T05:21:52.662Z,99879.56
2022-08-31T05:27:55.475Z,99884.59
2022-08-31T05:33:59.025Z,99894.47
2022-08-31T05:40:01.086Z,99891.94
2022-08-31T05:46:10.785Z,99902.22
2022-08-31T05:52:13.892Z,99905.88
2022-08-31T05:58:16.343Z,99921.53
2022-08-31T06:04:18.476Z,99921.22
2022-08-31T06:10:20.962Z,99926.88
2022-08-31T06:16:23.435Z,99926.44
2022-08-31T06:22:26.257Z,99931.94
2022-08-31T06:28:32.622Z,99935.34
2022-08-31T06:34:35.895Z,99937.16
2022-08-31T06:40:37.857Z,99941.34
2022-08-31T06:46:40.898Z,99941.34
2022-08-31T06:52:43.346Z,99943.97
2022-08-31T06:58:45.918Z,99947.34
2022-08-31T07:04:50.782Z,99956.84
2022-08-31T07:10:52.796Z,99966.09
2022-08-31T07:16:57.102Z,99958.16
2022-08-31T07:22:59.151Z,99959.28
2022-08-31T07:29:05.084Z,99957.44
2022-08-31T07:35:09.166Z,99964.16
2022-08-31T07:41:30.072Z,99969.28
2022-08-31T07:47:33.293Z,99969.72
2022-08-31T07:53:45.033Z,99983.78
2022-08-31T07:59:47.210Z,99977.53
2022-08-31T08:05:49.551Z,99984.50
2022-08-31T08:12:01.086Z,99990.63
2022-08-31T08:18:05.635Z,99982.00
2022-08-31T08:24:07.671Z,99977.59
2022-08-31T08:30:13.799Z,99988.41
2022-08-31T08:36:18.251Z,99990.50
2022-08-31T08:42:22.755Z,99993.03
2022-08-31T08:48:29.952Z,99990.22
2022-08-31T08:54:39.013Z,99983.88
2022-08-31T09:00:46.421Z,99995.28
2022-08-31T09:07:11.742Z,99984.25
2022-08-31T09:13:39.428Z,99993.53
2022-08-31T09:20:00.444Z,99993.97
2022-08-31T09:26:08.212Z,99997.31
2022-08-31T09:32:17.968Z,99993.00
2022-08-31T09:38:35.041Z,99993.47
2022-08-31T09:44:42.169Z,99990.22
2022-08-31T09:50:46.301Z,99996.56
2022-08-31T09:56:59.231Z,99996.00
2022-08-31T10:03:21.118Z,99989.44
2022-08-31T10:09:49.714Z,99981.69
2022-08-31T10:16:17.124Z,99979.44
2022-08-31T10:22:47.161Z,99978.34
2022-08-31T10:28:59.193Z,99984.59
2022-08-31T10:35:15.011Z,99977.69
2022-08-31T10:41:16.887Z,99985.78
2022-08-31T10:47:22.795Z,99969.06
2022-08-31T10:54:18.199Z,99984.16
2022-08-31T11:00:48.911Z,99986.13
2022-08-31T11:07:15.194Z,99980.72
2022-08-31T11:13:53.924Z,99974.56
2022-08-31T11:19:56.237Z,99972.97
2022-08-31T11:26:34.998Z,99957.88
2022-08-31T11:32:51.181Z,99953.84
2022-08-31T11:39:15.244Z,99950.44
2022-08-31T11:45:31.651Z,99937.94
2022-08-31T11:51:44.854Z,99937.56
2022-08-31T11:58:08.903Z,99928.94
2022-08-31T12:10:54.198Z,99934.09
2022-08-31T12:17:31.146Z,99927.47
2022-08-31T12:24:08.580Z,99926.16
2022-08-31T12:30:27.468Z,99925.06
2022-08-31T12:42:49.178Z,99940.97
2022-08-31T12:55:41.773Z,99941.97
2022-08-31T13:01:51.128Z,99936.13
2022-08-31T13:14:22.976Z,99911.91
2022-08-31T13:20:35.502Z,99897.66
2022-08-31T15:54:35.706Z,99821.78
2022-08-31T17:34:29.408Z,99809.44
2022-08-31T17:40:31.391Z,99819.72
2022-08-31T17:46:34.046Z,99815.25
2022-08-31T17:52:36.013Z,99832.50
2022-08-31T17:58:38.184Z,99825.09
2022-08-31T18:11:03.757Z,99825.97
2022-08-31T18:17:10.293Z,99830.22
2022-08-31T18:23:13.025Z,99838.03
2022-08-31T18:29:19.600Z,99848.63
2022-08-31T18:35:24.971Z,99850.91
2022-08-31T18:41:48.291Z,99858.59
2022-08-31T18:54:22.905Z,99867.44
2022-08-31T19:00:24.925Z,99872.13
2022-08-31T19:06:29.219Z,99882.53
2022-08-31T19:12:31.247Z,99883.34
2022-08-31T19:18:34.087Z,99886.22
2022-08-31T19:24:40.903Z,99880.53
2022-08-31T19:30:48.708Z,99888.94
2022-08-31T19:36:54.754Z,99888.00
2022-08-31T19:43:00.056Z,99886.81
2022-08-31T19:49:04.224Z,99884.72
2022-08-31T19:55:09.045Z,99883.44
2022-08-31T20:01:11.392Z,99885.94
2022-08-31T20:07:14.418Z,99889.25
2022-08-31T20:13:16.412Z,99890.69
2022-08-31T20:19:24.954Z,99892.41
2022-08-31T20:25:27.198Z,99892.38
2022-08-31T20:31:29.556Z,99892.53
2022-08-31T20:37:32.116Z,99903.78
2022-08-31T20:43:35.501Z,99898.81
2022-08-31T20:49:50.593Z,99908.91
2022-08-31T20:55:52.542Z,99914.09
2022-08-31T21:01:59.626Z,99915.91
2022-08-31T21:08:03.188Z,99920.56
2022-08-31T21:14:06.673Z,99918.91
2022-08-31T21:20:09.129Z,99921.44
2022-08-31T21:26:21.588Z,99916.53
2022-08-31T21:32:23.536Z,99922.22
2022-08-31T21:38:26.823Z,99916.09
2022-08-31T21:44:28.912Z,99930.41
2022-08-31T21:50:30.857Z,99933.31
2022-08-31T21:56:39.881Z,99933.53
2022-08-31T22:02:45.117Z,99929.31
2022-08-31T22:08:47.122Z,99935.91
2022-08-31T22:14:50.640Z,99939.44
2022-08-31T22:20:52.627Z,99948.41
2022-08-31T22:26:57.559Z,99952.63
2022-08-31T22:32:59.800Z,99943.91
2022-08-31T22:39:13.752Z,99946.84
2022-08-31T22:45:16.845Z,99945.00
2022-08-31T22:51:22.366Z,99949.56
2022-08-31T22:57:24.366Z,99942.13
2022-08-31T23:03:27.159Z,99943.38
2022-08-31T23:09:32.060Z,99940.22
2022-08-31T23:15:34.234Z,99936.72
2022-08-31T23:21:36.560Z,99930.69
2022-08-31T23:27:38.537Z,99925.91
2022-08-31T23:33:40.498Z,99914.69
2022-08-31T23:39:44.504Z,99921.34
2022-08-31T23:45:47.014Z,99919.88
2022-08-31T23:51:49.984Z,99919.63
2022-08-31T23:57:51.950Z,99918.00
